createdAt,value
2022-08-12T00:02:03.737Z,99698.63
2022-08-12T00:05:19.119Z,99697.77
2022-08-12T00:08:10.850Z,99702.39
2022-08-12T00:11:09.831Z,99709.61
2022-08-12T00:14:04.670Z,99712.91
2022-08-12T00:16:57.693Z,99712.20
2022-08-12T00:19:47.495Z,99710.80
2022-08-12T00:22:39.799Z,99710.13
2022-08-12T00:26:00.477Z,99712.77
2022-08-12T00:28:39.906Z,99713.52
2022-08-12T00:31:31.580Z,99715.42
2022-08-12T00:34:21.257Z,99713.95
2022-08-12T00:37:15.435Z,99711.45
2022-08-12T00:40:10.879Z,99712.48
2022-08-12T00:42:45.433Z,99710.20
2022-08-12T00:45:21.673Z,99710.38
2022-08-12T00:47:55.019Z,99711.13
2022-08-12T00:50:29.746Z,99710.10
2022-08-12T00:53:03.720Z,99706.97
2022-08-12T00:55:39.647Z,99707.84
2022-08-12T00:58:12.324Z,99709.43
2022-08-12T01:00:51.520Z,99708.06
2022-08-12T01:03:26.793Z,99711.96
2022-08-12T01:06:25.200Z,99717.33
2022-08-12T01:09:24.887Z,99712.96
2022-08-12T01:11:57.533Z,99709.36
2022-08-12T01:14:32.118Z,99705.23
2022-08-12T01:17:07.626Z,99704.02
2022-08-12T01:19:39.827Z,99698.76
2022-08-12T01:22:29.814Z,99698.42
2022-08-12T01:25:10.071Z,99692.61
2022-08-12T01:27:54.891Z,99689.23
2022-08-12T01:30:31.408Z,99688.73
2022-08-12T01:33:14.666Z,99686.77
2022-08-12T01:36:08.196Z,99685.90
2022-08-12T01:38:43.991Z,99686.26
2022-08-12T01:41:20.771Z,99687.83
2022-08-12T01:43:55.707Z,99688.73
2022-08-12T01:47:03.890Z,99682.05
2022-08-12T01:50:04.593Z,99679.27
2022-08-12T01:52:59.345Z,99681.98
2022-08-12T01:55:40.090Z,99681.20
2022-08-12T01:58:27.309Z,99681.23
2022-08-12T02:01:04.881Z,99678.96
2022-08-12T02:04:13.738Z,99681.23
2022-08-12T02:07:16.053Z,99679.63
2022-08-12T02:10:49.251Z,99676.29
2022-08-12T02:13:50.051Z,99679.25
2022-08-12T02:16:38.218Z,99677.29
2022-08-12T02:19:24.447Z,99678.66
2022-08-12T02:22:12.669Z,99673.48
2022-08-12T02:24:50.952Z,99669.73
2022-08-12T02:27:28.018Z,99666.16
2022-08-12T02:29:59.956Z,99665.28
2022-08-12T02:32:42.008Z,99663.55
2022-08-12T02:35:21.149Z,99667.94
2022-08-12T02:37:55.828Z,99674.92
2022-08-12T02:40:30.663Z,99679.45
2022-08-12T02:43:13.447Z,99683.80
2022-08-12T02:45:54.068Z,99677.06
2022-08-12T02:48:30.922Z,99674.93
2022-08-12T02:51:09.577Z,99674.20
2022-08-12T02:53:42.627Z,99665.75
2022-08-12T02:56:15.102Z,99671.24
2022-08-12T02:58:59.144Z,99672.75
2022-08-12T03:01:35.814Z,99679.52
2022-08-12T03:04:27.365Z,99685.52
2022-08-12T03:07:14.928Z,99682.88
2022-08-12T03:10:04.480Z,99681.47
2022-08-12T03:12:49.833Z,99672.32
2022-08-12T03:15:35.821Z,99674.11
2022-08-12T03:18:25.500Z,99683.61
2022-08-12T03:21:14.231Z,99683.41
2022-08-12T03:24:04.109Z,99682.70
2022-08-12T03:26:37.988Z,99684.45
2022-08-12T03:29:14.573Z,99689.26
2022-08-12T03:32:08.407Z,99696.16
2022-08-12T03:35:07.519Z,99706.31
2022-08-12T03:37:42.774Z,99707.34
2022-08-12T03:40:35.963Z,99708.91
2022-08-12T03:43:28.608Z,99702.31
2022-08-12T03:46:27.581Z,99705.82
2022-08-12T03:49:19.839Z,99704.77
2022-08-12T03:52:12.656Z,99704.98
2022-08-12T03:55:05.582Z,99699.36
2022-08-12T03:57:55.590Z,99709.09
2022-08-12T04:00:28.568Z,99711.09
2022-08-12T04:03:02.025Z,99706.38
2022-08-12T04:05:55.671Z,99706.73
2022-08-12T04:08:31.781Z,99707.77
2022-08-12T04:11:32.362Z,99711.04
2022-08-12T04:14:11.779Z,99713.41
2022-08-12T04:16:48.930Z,99718.75
2022-08-12T04:19:24.745Z,99722.63
2022-08-12T04:22:03.557Z,99732.48
2022-08-12T04:24:40.904Z,99728.79
2022-08-12T04:27:15.508Z,99725.99
2022-08-12T04:30:21.409Z,99730.98
2022-08-12T04:32:44.730Z,99733.51
2022-08-12T04:35:19.399Z,99735.20
2022-08-12T04:38:01.021Z,99734.13
2022-08-12T04:40:36.549Z,99727.13
2022-08-12T04:44:01.293Z,99722.58
2022-08-12T04:46:03.621Z,99722.56
2022-08-12T04:48:47.767Z,99727.61
2022-08-12T04:51:23.226Z,99724.95
2022-08-12T04:53:55.792Z,99733.50
2022-08-12T04:56:35.469Z,99736.63
2022-08-12T04:59:10.566Z,99737.06
2022-08-12T05:02:03.019Z,99743.43
2022-08-12T05:04:42.616Z,99740.34
2022-08-12T05:07:14.585Z,99733.55
2022-08-12T05:10:07.337Z,99733.53
2022-08-12T05:12:43.114Z,99725.85
2022-08-12T05:15:27.455Z,99718.02
2022-08-12T05:18:19.542Z,99708.65
2022-08-12T05:20:52.495Z,99715.33
2022-08-12T05:23:27.819Z,99713.43
2022-08-12T05:26:01.146Z,99719.39
2022-08-12T05:28:35.600Z,99718.26
2022-08-12T05:31:08.391Z,99722.80
2022-08-12T05:33:46.214Z,99729.98
2022-08-12T05:36:20.067Z,99729.16
2022-08-12T05:39:02.011Z,99732.08
2022-08-12T05:41:36.346Z,99738.40
2022-08-12T05:44:10.091Z,99745.12
2022-08-12T05:46:44.569Z,99750.55
2022-08-12T05:49:16.861Z,99757.70
2022-08-12T05:51:51.953Z,99750.00
2022-08-12T05:54:47.306Z,99751.88
2022-08-12T05:57:21.018Z,99751.40
2022-08-12T05:59:53.826Z,99756.23
2022-08-12T06:02:26.537Z,99759.36
2022-08-12T06:05:00.493Z,99759.86
2022-08-12T06:08:02.343Z,99754.61
2022-08-12T06:10:34.329Z,99758.02
2022-08-12T06:13:08.088Z,99748.58
2022-08-12T06:15:43.037Z,99745.08
2022-08-12T06:18:19.289Z,99747.75
2022-08-12T06:20:53.913Z,99754.80
2022-08-12T06:23:41.891Z,99752.82
2022-08-12T06:26:16.831Z,99752.11
2022-08-12T06:28:51.788Z,99746.42
2022-08-12T06:31:26.581Z,99743.02
2022-08-12T06:35:23.436Z,99739.70
2022-08-12T06:36:53.784Z,99741.83
2022-08-12T06:39:26.269Z,99739.19
2022-08-12T06:42:32.357Z,99745.20
2022-08-12T06:45:07.315Z,99745.84
2022-08-12T06:47:40.632Z,99746.70
2022-08-12T06:50:17.000Z,99743.95
2022-08-12T06:52:51.022Z,99746.23
2022-08-12T06:55:25.542Z,99743.78
2022-08-12T06:58:10.369Z,99741.32
2022-08-12T07:00:51.107Z,99741.45
2022-08-12T07:03:27.939Z,99740.16
2022-08-12T07:06:05.856Z,99744.09
2022-08-12T07:08:38.737Z,99742.61
2022-08-12T07:11:13.471Z,99744.64
2022-08-12T07:14:10.135Z,99749.48
2022-08-12T07:16:54.072Z,99749.55
2022-08-12T07:19:40.405Z,99754.77
2022-08-12T07:22:18.043Z,99755.67
2022-08-12T07:25:13.696Z,99761.64
2022-08-12T07:27:46.824Z,99759.44
2022-08-12T07:30:21.166Z,99757.37
2022-08-12T07:32:55.634Z,99750.20
2022-08-12T07:35:29.514Z,99750.35
2022-08-12T07:38:29.894Z,99750.67
2022-08-12T07:41:06.999Z,99750.93
2022-08-12T07:43:41.641Z,99754.99
2022-08-12T07:46:20.599Z,99756.98
2022-08-12T07:48:57.638Z,99753.67
2022-08-12T07:51:32.773Z,99745.40
2022-08-12T07:54:09.889Z,99744.41
2022-08-12T07:56:43.767Z,99750.71
2022-08-12T07:59:18.848Z,99755.77
2022-08-12T08:01:54.205Z,99771.46
2022-08-12T08:04:44.243Z,99768.88
2022-08-12T08:07:16.997Z,99767.33
2022-08-12T08:09:58.683Z,99770.33
2022-08-12T08:12:50.129Z,99759.98
2022-08-12T08:15:38.629Z,99759.19
2022-08-12T08:18:26.209Z,99760.84
2022-08-12T08:20:59.609Z,99755.27
2022-08-12T08:23:56.354Z,99752.73
2022-08-12T08:26:33.435Z,99760.59
2022-08-12T08:29:09.986Z,99763.48
2022-08-12T08:31:46.844Z,99774.61
2022-08-12T08:34:27.562Z,99774.64
2022-08-12T08:37:21.282Z,99773.77
2022-08-12T08:40:18.361Z,99767.82
2022-08-12T08:42:51.490Z,99777.15
2022-08-12T08:45:24.001Z,99784.98
2022-08-12T08:47:59.712Z,99787.49
2022-08-12T08:50:42.805Z,99790.84
2022-08-12T08:53:17.426Z,99790.45
2022-08-12T08:56:04.676Z,99791.74
2022-08-12T08:58:40.058Z,99793.86
2022-08-12T09:01:18.265Z,99789.77
2022-08-12T09:05:12.607Z,99788.98
2022-08-12T09:06:53.957Z,99777.61
2022-08-12T09:10:02.033Z,99761.84
2022-08-12T09:12:54.872Z,99760.04
2022-08-12T09:15:41.668Z,99757.29
2022-08-12T09:18:15.137Z,99754.63
2022-08-12T09:20:51.039Z,99758.36
2022-08-12T09:23:59.788Z,99753.05
2022-08-12T09:30:11.380Z,99749.86
2022-08-12T09:32:56.465Z,99745.34
2022-08-12T09:35:18.692Z,99742.86
2022-08-12T09:37:58.777Z,99739.71
2022-08-12T09:41:01.487Z,99740.73
2022-08-12T09:43:53.952Z,99741.03
2022-08-12T09:46:45.813Z,99743.27
2022-08-12T09:49:18.919Z,99735.70
2022-08-12T09:52:06.804Z,99732.05
2022-08-12T09:54:42.955Z,99727.29
2022-08-12T09:58:46.234Z,99725.41
2022-08-12T10:00:27.479Z,99719.48
2022-08-12T10:03:07.881Z,99718.85
2022-08-12T10:06:26.956Z,99710.23
2022-08-12T10:08:53.511Z,99715.48
2022-08-12T10:12:11.548Z,99708.88
2022-08-12T10:14:36.528Z,99701.35
2022-08-12T10:17:12.549Z,99696.45
2022-08-12T10:19:51.912Z,99690.67
2022-08-12T10:22:40.361Z,99682.02
2022-08-12T10:26:25.743Z,99673.84
2022-08-12T10:28:43.025Z,99666.92
2022-08-12T10:31:46.992Z,99664.47
2022-08-12T10:34:29.205Z,99664.77
2022-08-12T10:37:15.628Z,99661.71
2022-08-12T10:40:00.819Z,99659.21
2022-08-12T10:43:00.656Z,99650.25
2022-08-12T10:45:38.005Z,99643.52
2022-08-12T10:48:21.295Z,99642.32
2022-08-12T10:51:51.619Z,99637.06
2022-08-12T10:54:00.361Z,99636.02
2022-08-12T10:56:37.091Z,99631.98
2022-08-12T10:59:12.704Z,99626.25
2022-08-12T11:04:27.053Z,99622.47
2022-08-12T11:04:50.064Z,99620.71
2022-08-12T11:08:37.847Z,99622.19
2022-08-12T11:10:18.957Z,99613.73
2022-08-12T11:13:00.685Z,99608.79
2022-08-12T11:16:03.317Z,99610.77
2022-08-12T11:18:28.693Z,99611.71
2022-08-12T11:21:02.182Z,99611.40
2022-08-12T11:23:37.942Z,99606.45
2022-08-12T11:26:15.015Z,99606.86
2022-08-12T11:28:50.493Z,99611.65
2022-08-12T11:32:01.638Z,99612.77
2022-08-12T11:34:53.265Z,99622.17
2022-08-12T11:37:55.855Z,99623.34
2022-08-12T11:40:30.390Z,99620.61
2022-08-12T11:43:19.111Z,99620.13
2022-08-12T11:45:56.699Z,99616.08
2022-08-12T11:48:31.328Z,99611.37
2022-08-12T11:51:23.461Z,99614.66
2022-08-12T11:54:01.413Z,99617.38
2022-08-12T11:56:38.550Z,99616.87
2022-08-12T12:02:34.902Z,99616.56
2022-08-12T12:05:39.518Z,99619.16
2022-08-12T12:08:38.950Z,99611.05
2022-08-12T12:11:48.729Z,99604.75
2022-08-12T12:14:38.292Z,99603.05
2022-08-12T12:17:11.345Z,99605.34
2022-08-12T12:19:46.577Z,99602.30
2022-08-12T12:22:31.033Z,99602.74
2022-08-12T12:25:09.042Z,99600.05
2022-08-12T12:28:05.735Z,99599.27
2022-08-12T12:30:54.925Z,99597.83
2022-08-12T12:33:56.746Z,99596.68
2022-08-12T12:36:54.803Z,99595.46
2022-08-12T12:39:55.438Z,99596.98
2022-08-12T12:42:41.794Z,99595.14
2022-08-12T12:45:25.908Z,99598.40
2022-08-12T12:48:09.256Z,99592.65
2022-08-12T12:50:51.403Z,99593.53
2022-08-12T12:54:06.598Z,99590.14
2022-08-12T12:56:31.536Z,99586.19
2022-08-12T12:59:55.057Z,99585.88
2022-08-12T13:02:09.329Z,99582.88
2022-08-12T13:04:41.284Z,99581.74
2022-08-12T13:07:18.103Z,99577.30
2022-08-12T13:09:50.987Z,99575.58
2022-08-12T13:12:27.147Z,99570.85
2022-08-12T13:15:03.424Z,99574.50
2022-08-12T13:18:00.736Z,99571.71
2022-08-12T13:20:37.446Z,99567.86
2022-08-12T13:23:36.436Z,99564.92
2022-08-12T13:26:14.307Z,99559.83
2022-08-12T13:28:55.980Z,99553.17
2022-08-12T13:31:30.681Z,99552.86
2022-08-12T13:34:33.905Z,99551.01
2022-08-12T13:37:10.157Z,99542.91
2022-08-12T13:39:44.496Z,99543.94
2022-08-12T13:42:19.493Z,99540.16
2022-08-12T13:44:54.587Z,99536.26
2022-08-12T13:47:53.080Z,99534.06
2022-08-12T13:50:32.665Z,99535.65
2022-08-12T13:53:24.222Z,99534.65
2022-08-12T13:55:59.522Z,99531.69
2022-08-12T13:58:37.712Z,99531.25
2022-08-12T14:01:13.133Z,99533.44
2022-08-12T14:03:50.587Z,99528.88
2022-08-12T14:06:26.043Z,99524.06
2022-08-12T14:09:15.248Z,99522.86
2022-08-12T14:11:58.733Z,99521.49
2022-08-12T14:14:35.715Z,99516.27
2022-08-12T14:17:10.872Z,99516.30
2022-08-12T14:20:03.144Z,99517.08
2022-08-12T14:22:38.212Z,99512.94
2022-08-12T14:25:21.623Z,99508.91
2022-08-12T14:28:12.585Z,99503.08
2022-08-12T14:30:59.785Z,99503.16
2022-08-12T14:33:43.961Z,99504.84
2022-08-12T14:36:36.920Z,99503.33
2022-08-12T14:39:13.034Z,99501.59
2022-08-12T14:41:48.680Z,99499.45
2022-08-12T14:45:00.041Z,99490.81
2022-08-12T14:47:22.031Z,99486.77
2022-08-12T14:50:37.368Z,99486.95
2022-08-12T14:55:28.342Z,99486.83
2022-08-12T14:58:35.517Z,99486.88
2022-08-12T15:01:27.938Z,99486.38
2022-08-12T15:04:06.067Z,99488.73
2022-08-12T15:06:52.025Z,99492.23
2022-08-12T15:09:29.200Z,99492.00
2022-08-12T15:12:03.319Z,99487.35
2022-08-12T15:14:37.876Z,99483.63
2022-08-12T15:17:10.680Z,99477.08
2022-08-12T15:20:33.456Z,99477.82
2022-08-12T15:23:17.507Z,99474.45
2022-08-12T15:26:02.861Z,99472.52
2022-08-12T15:28:37.379Z,99466.05
2022-08-12T15:31:27.412Z,99463.47
2022-08-12T15:34:00.143Z,99462.64
2022-08-12T15:36:53.917Z,99463.52
2022-08-12T15:39:29.826Z,99462.64
2022-08-12T15:42:08.020Z,99461.77
2022-08-12T15:44:42.864Z,99465.95
2022-08-12T15:47:16.401Z,99460.98
2022-08-12T15:50:00.677Z,99463.86
2022-08-12T15:52:33.057Z,99468.08
2022-08-12T15:55:14.206Z,99463.67
2022-08-12T15:57:54.337Z,99464.64
2022-08-12T16:00:33.403Z,99459.89
2022-08-12T16:03:13.608Z,99461.94
2022-08-12T16:06:16.891Z,99462.10
2022-08-12T16:08:47.224Z,99455.77
2022-08-12T16:11:21.963Z,99458.55
2022-08-12T16:13:53.949Z,99454.92
2022-08-12T16:16:27.826Z,99453.63
2022-08-12T16:19:18.849Z,99448.50
2022-08-12T16:21:59.055Z,99447.86
2022-08-12T16:24:43.748Z,99445.69
2022-08-12T16:27:18.806Z,99441.38
2022-08-12T16:29:57.709Z,99441.17
2022-08-12T16:32:33.104Z,99436.95
2022-08-12T16:35:16.159Z,99434.04
2022-08-12T16:38:25.553Z,99435.84
2022-08-12T16:40:46.327Z,99435.27
2022-08-12T16:43:35.359Z,99435.52
2022-08-12T16:46:31.720Z,99432.27
2022-08-12T16:49:15.450Z,99429.21
2022-08-12T16:51:47.605Z,99432.52
2022-08-12T16:54:36.167Z,99429.11
2022-08-12T16:57:19.075Z,99430.63
2022-08-12T17:00:18.562Z,99429.09
2022-08-12T17:03:01.910Z,99428.95
2022-08-12T17:05:35.406Z,99429.79
2022-08-12T17:08:15.503Z,99427.24
2022-08-12T17:10:52.675Z,99426.05
2022-08-12T17:13:27.634Z,99422.69
2022-08-12T17:16:06.283Z,99425.49
2022-08-12T17:18:57.654Z,99424.11
2022-08-12T17:21:41.609Z,99421.17
2022-08-12T17:24:32.635Z,99415.43
2022-08-12T17:27:16.510Z,99414.70
2022-08-12T17:30:02.097Z,99416.82
2022-08-12T17:32:39.781Z,99411.73
2022-08-12T17:35:37.101Z,99413.14
2022-08-12T17:38:13.773Z,99411.83
2022-08-12T17:40:48.817Z,99412.36
2022-08-12T17:43:57.627Z,99412.73
2022-08-12T17:46:23.880Z,99411.65
2022-08-12T17:49:18.879Z,99409.91
2022-08-12T17:52:02.235Z,99408.98
2022-08-12T17:54:41.150Z,99407.98
2022-08-12T17:57:17.323Z,99407.77
2022-08-12T18:00:01.350Z,99407.91
2022-08-12T18:02:37.298Z,99406.54
2022-08-12T18:05:16.195Z,99408.41
2022-08-12T18:07:57.971Z,99414.89
2022-08-12T18:10:53.070Z,99410.30
2022-08-12T18:13:40.782Z,99411.44
2022-08-12T18:16:24.398Z,99410.06
2022-08-12T18:19:02.628Z,99406.73
2022-08-12T18:22:01.211Z,99410.12
2022-08-12T18:24:37.068Z,99415.14
2022-08-12T18:27:44.445Z,99416.52
2022-08-12T18:30:29.974Z,99418.09
2022-08-12T18:33:06.329Z,99422.94
2022-08-12T18:35:53.366Z,99423.31
2022-08-12T18:38:29.977Z,99422.89
2022-08-12T18:41:34.151Z,99423.14
2022-08-12T18:44:10.144Z,99421.52
2022-08-12T18:46:53.702Z,99417.34
2022-08-12T18:49:34.611Z,99417.92
2022-08-12T18:52:12.185Z,99421.00
2022-08-12T18:54:48.830Z,99420.89
2022-08-12T18:58:07.700Z,99419.56
2022-08-12T19:00:25.264Z,99424.69
2022-08-12T19:02:57.599Z,99428.48
2022-08-12T19:05:54.301Z,99426.30
2022-08-12T19:08:30.256Z,99421.86
2022-08-12T19:11:20.650Z,99419.27
2022-08-12T19:14:15.057Z,99423.77
2022-08-12T19:16:52.745Z,99436.70
2022-08-12T19:19:25.342Z,99445.91
2022-08-12T19:21:58.160Z,99445.58
2022-08-12T19:24:51.293Z,99441.56
2022-08-12T19:27:50.781Z,99443.07
2022-08-12T19:30:46.675Z,99443.54
2022-08-12T19:33:27.856Z,99443.55
2022-08-12T19:36:25.153Z,99445.46
2022-08-12T19:39:02.025Z,99444.83
2022-08-12T19:42:01.051Z,99442.15
2022-08-12T19:44:38.084Z,99441.60
2022-08-12T19:47:22.091Z,99446.90
2022-08-12T19:49:56.454Z,99443.54
2022-08-12T19:52:34.020Z,99441.44
2022-08-12T19:55:11.529Z,99436.90
2022-08-12T19:58:05.156Z,99438.54
2022-08-12T20:00:52.606Z,99439.52
2022-08-12T20:03:38.717Z,99439.81
2022-08-12T20:06:18.275Z,99441.92
2022-08-12T20:08:55.946Z,99439.33
2022-08-12T20:12:10.182Z,99447.91
2022-08-12T20:14:32.960Z,99446.42
2022-08-12T20:17:08.610Z,99440.13
2022-08-12T20:20:05.594Z,99445.02
2022-08-12T20:22:44.943Z,99440.12
2022-08-12T20:25:28.458Z,99437.09
2022-08-12T20:28:36.659Z,99427.83
2022-08-12T20:31:15.531Z,99431.23
2022-08-12T20:33:56.729Z,99428.41
2022-08-12T20:36:41.645Z,99427.13
2022-08-12T20:39:51.916Z,99426.23
2022-08-12T20:42:14.066Z,99425.36
2022-08-12T20:44:50.685Z,99422.15
2022-08-12T20:47:24.978Z,99422.41
2022-08-12T20:50:14.765Z,99419.85
2022-08-12T20:52:58.067Z,99421.08
2022-08-12T20:55:42.440Z,99422.27
2022-08-12T20:58:19.799Z,99422.94
2022-08-12T21:00:56.609Z,99420.39
2022-08-12T21:03:58.308Z,99414.65
2022-08-12T21:06:48.840Z,99409.79
2022-08-12T21:09:24.156Z,99410.24
2022-08-12T21:12:28.135Z,99411.45
2022-08-12T21:15:24.365Z,99414.02
2022-08-12T21:18:11.298Z,99417.58
2022-08-12T21:20:59.094Z,99418.03
2022-08-12T21:23:37.142Z,99418.86
2022-08-12T21:26:16.477Z,99421.63
2022-08-12T21:29:01.478Z,99420.23
2022-08-12T21:32:37.029Z,99421.08
2022-08-12T21:34:32.737Z,99419.73
2022-08-12T21:37:13.129Z,99419.10
2022-08-12T21:39:57.708Z,99421.23
2022-08-12T21:42:32.659Z,99418.70
2022-08-12T21:45:47.336Z,99419.92
2022-08-12T21:47:59.882Z,99417.83
2022-08-12T21:50:40.512Z,99420.20
2022-08-12T21:53:15.592Z,99421.66
2022-08-12T21:55:57.969Z,99418.71
2022-08-12T21:58:28.991Z,99421.05
2022-08-12T22:01:20.107Z,99422.73
2022-08-12T22:04:33.506Z,99419.88
2022-08-12T22:07:08.680Z,99418.94
2022-08-12T22:09:43.873Z,99413.88
2022-08-12T22:12:37.653Z,99415.85
2022-08-12T22:15:21.395Z,99412.91
2022-08-12T22:17:57.718Z,99412.43
2022-08-12T22:20:32.771Z,99409.27
2022-08-12T22:23:21.870Z,99407.08
2022-08-12T22:26:06.368Z,99408.20
2022-08-12T22:29:04.430Z,99403.36
2022-08-12T22:31:41.810Z,99396.66
2022-08-12T22:34:18.041Z,99396.58
2022-08-12T22:36:53.140Z,99397.31
2022-08-12T22:39:31.619Z,99394.59
2022-08-12T22:42:27.383Z,99393.18
2022-08-12T22:45:23.127Z,99391.31
2022-08-12T22:47:58.496Z,99394.81
2022-08-12T22:50:36.021Z,99391.85
2022-08-12T22:53:17.279Z,99390.05
2022-08-12T22:56:00.113Z,99387.02
2022-08-12T22:58:41.500Z,99385.87
2022-08-12T23:01:21.527Z,99388.90
2022-08-12T23:04:27.533Z,99386.04
2022-08-12T23:07:05.561Z,99384.89
2022-08-12T23:09:48.060Z,99377.29
2022-08-12T23:12:40.781Z,99372.78
2022-08-12T23:15:17.719Z,99370.34
2022-08-12T23:17:58.115Z,99364.52
2022-08-12T23:20:34.640Z,99359.99
2022-08-12T23:23:09.485Z,99352.67
2022-08-12T23:26:02.421Z,99348.52
2022-08-12T23:28:53.271Z,99344.83
2022-08-12T23:32:03.180Z,99340.77
2022-08-12T23:34:30.828Z,99337.19
2022-08-12T23:37:14.193Z,99333.99
2022-08-12T23:40:15.836Z,99339.20
2022-08-12T23:42:44.073Z,99337.04
2022-08-12T23:45:31.782Z,99342.11
2022-08-12T23:48:07.290Z,99340.86
2022-08-12T23:50:47.879Z,99336.87
2022-08-12T23:53:32.386Z,99338.35
2022-08-12T23:56:04.875Z,99336.86
2022-08-12T23:58:54.245Z,99331.38
